createdAt,value
2022-09-09T00:01:10.236Z,17.41
2022-09-09T00:03:47.574Z,17.44
2022-09-09T00:06:26.911Z,17.42
2022-09-09T00:09:06.890Z,17.38
2022-09-09T00:11:43.603Z,17.36
2022-09-09T00:14:20.854Z,17.33
2022-09-09T00:16:56.710Z,17.36
2022-09-09T00:19:32.623Z,17.43
2022-09-09T00:22:11.313Z,17.44
2022-09-09T00:24:45.783Z,17.41
2022-09-09T00:27:21.931Z,17.35
2022-09-09T00:29:56.224Z,17.23
2022-09-09T00:32:28.087Z,17.12
2022-09-09T00:35:02.575Z,17.02
2022-09-09T00:37:34.702Z,17.01
2022-09-09T00:40:18.529Z,17.09
2022-09-09T00:42:52.231Z,17.01
2022-09-09T00:45:48.392Z,16.96
2022-09-09T00:48:17.380Z,16.97
2022-09-09T00:50:56.575Z,17.03
2022-09-09T00:53:36.005Z,16.96
2022-09-09T00:56:15.275Z,16.93
2022-09-09T00:58:51.552Z,16.97
2022-09-09T01:01:20.388Z,17.04
2022-09-09T01:03:55.014Z,17.08
2022-09-09T01:06:31.655Z,17.08
2022-09-09T01:09:21.894Z,16.93
2022-09-09T01:12:00.733Z,16.70
2022-09-09T01:14:42.374Z,16.69
2022-09-09T01:17:18.454Z,16.62
2022-09-09T01:20:06.608Z,16.53
2022-09-09T01:22:52.173Z,16.55
2022-09-09T01:25:34.271Z,16.50
2022-09-09T01:28:16.314Z,16.40
2022-09-09T01:30:45.688Z,16.28
2022-09-09T01:33:20.623Z,16.25
2022-09-09T01:35:55.863Z,16.24
2022-09-09T01:38:28.325Z,16.23
2022-09-09T01:40:57.335Z,16.16
2022-09-09T01:43:37.953Z,16.18
2022-09-09T01:46:07.220Z,16.18
2022-09-09T01:48:39.274Z,16.10
2022-09-09T01:51:12.584Z,16.08
2022-09-09T01:53:44.285Z,16.04
2022-09-09T01:56:28.988Z,15.98
2022-09-09T01:59:10.334Z,15.86
2022-09-09T02:01:54.639Z,15.84
2022-09-09T02:04:38.394Z,15.83
2022-09-09T02:07:29.002Z,15.91
2022-09-09T02:10:05.715Z,15.99
2022-09-09T02:12:34.515Z,15.98
2022-09-09T02:15:16.914Z,15.96
2022-09-09T02:17:53.325Z,15.87
2022-09-09T02:20:23.004Z,15.83
2022-09-09T02:22:58.752Z,15.90
2022-09-09T02:25:31.485Z,15.89
2022-09-09T02:28:12.043Z,15.86
2022-09-09T02:30:45.151Z,15.90
2022-09-09T02:33:16.635Z,15.99
2022-09-09T02:35:50.715Z,16.06
2022-09-09T02:38:26.362Z,16.06
2022-09-09T02:41:05.267Z,16.02
2022-09-09T02:43:34.399Z,15.95
2022-09-09T02:46:21.248Z,15.93
2022-09-09T02:48:59.748Z,15.80
2022-09-09T02:51:41.399Z,15.70
2022-09-09T02:54:17.667Z,15.72
2022-09-09T02:56:52.327Z,15.62
2022-09-09T02:59:23.869Z,15.61
2022-09-09T03:01:54.525Z,15.65
2022-09-09T03:04:26.109Z,15.72
2022-09-09T03:06:54.970Z,15.67
2022-09-09T03:09:23.940Z,15.63
2022-09-09T03:11:52.859Z,15.62
2022-09-09T03:14:26.054Z,15.57
2022-09-09T03:16:57.668Z,15.42
2022-09-09T03:19:27.456Z,15.39
2022-09-09T03:21:56.408Z,15.40
2022-09-09T03:24:26.565Z,15.50
2022-09-09T03:26:56.993Z,15.58
2022-09-09T03:29:26.018Z,15.66
2022-09-09T03:31:59.114Z,15.61
2022-09-09T03:34:28.225Z,15.55
2022-09-09T03:36:59.317Z,15.55
2022-09-09T03:39:30.310Z,15.61
2022-09-09T03:42:05.098Z,15.65
2022-09-09T03:44:34.718Z,15.60
2022-09-09T03:47:04.740Z,15.60
2022-09-09T03:49:33.747Z,15.62
2022-09-09T03:52:03.024Z,15.59
2022-09-09T03:54:31.678Z,15.55
2022-09-09T03:57:00.438Z,15.57
2022-09-09T03:59:29.107Z,15.59
2022-09-09T04:01:58.585Z,15.64
2022-09-09T04:04:28.719Z,15.68
2022-09-09T04:06:57.678Z,15.71
2022-09-09T04:09:26.434Z,15.70
2022-09-09T04:11:56.350Z,15.69
2022-09-09T04:14:29.545Z,15.64
2022-09-09T04:16:59.518Z,15.54
2022-09-09T04:19:30.415Z,15.27
2022-09-09T04:21:59.169Z,15.17
2022-09-09T04:24:28.608Z,15.16
2022-09-09T04:26:57.896Z,15.17
2022-09-09T04:29:26.638Z,15.18
2022-09-09T04:31:55.267Z,15.14
2022-09-09T04:34:23.818Z,15.22
2022-09-09T04:36:54.198Z,15.18
2022-09-09T04:39:22.976Z,15.18
2022-09-09T04:41:51.769Z,15.22
2022-09-09T04:44:20.677Z,15.15
2022-09-09T04:46:50.140Z,15.19
2022-09-09T04:49:19.347Z,15.18
2022-09-09T04:51:48.138Z,15.21
2022-09-09T04:54:18.378Z,15.21
2022-09-09T04:56:48.080Z,15.22
2022-09-09T04:59:16.586Z,15.25
2022-09-09T05:01:49.474Z,15.22
2022-09-09T05:04:18.518Z,15.28
2022-09-09T05:06:47.131Z,15.30
2022-09-09T05:09:17.920Z,15.32
2022-09-09T05:11:47.919Z,15.29
2022-09-09T05:14:31.785Z,15.32
2022-09-09T05:17:02.695Z,15.35
2022-09-09T05:19:32.359Z,15.38
2022-09-09T05:22:02.259Z,15.43
2022-09-09T05:24:41.331Z,15.59
2022-09-09T05:27:13.282Z,15.74
2022-09-09T05:29:46.340Z,15.86
2022-09-09T05:32:16.600Z,15.97
2022-09-09T05:34:48.689Z,16.15
2022-09-09T05:37:17.816Z,16.27
2022-09-09T05:39:47.731Z,16.44
2022-09-09T05:42:16.375Z,16.57
2022-09-09T05:44:46.066Z,16.66
2022-09-09T05:47:16.707Z,16.77
2022-09-09T05:49:45.864Z,16.90
2022-09-09T05:52:14.356Z,17.01
2022-09-09T05:54:44.220Z,17.12
2022-09-09T05:57:14.419Z,17.19
2022-09-09T05:59:43.072Z,17.27
2022-09-09T06:02:12.495Z,17.30
2022-09-09T06:04:41.358Z,17.38
2022-09-09T06:07:09.980Z,17.50
2022-09-09T06:09:38.569Z,17.61
2022-09-09T06:12:11.286Z,17.73
2022-09-09T06:14:46.237Z,17.88
2022-09-09T06:17:16.939Z,18.03
2022-09-09T06:19:45.625Z,18.19
2022-09-09T06:22:14.153Z,18.26
2022-09-09T06:24:43.928Z,18.30
2022-09-09T06:27:14.981Z,18.30
2022-09-09T06:29:45.658Z,18.33
2022-09-09T06:32:14.839Z,18.38
2022-09-09T06:34:43.438Z,18.54
2022-09-09T06:37:12.456Z,18.65
2022-09-09T06:39:46.835Z,18.79
2022-09-09T06:42:16.852Z,18.90
2022-09-09T06:45:00.007Z,19.02
2022-09-09T06:47:57.540Z,19.16
2022-09-09T06:50:26.857Z,19.26
2022-09-09T06:52:55.465Z,19.34
2022-09-09T06:55:24.186Z,19.44
2022-09-09T06:57:53.097Z,19.58
2022-09-09T07:00:26.888Z,19.69
2022-09-09T07:02:55.617Z,19.74
2022-09-09T07:05:25.008Z,19.83
2022-09-09T07:07:54.877Z,19.96
2022-09-09T07:10:23.584Z,20.08
2022-09-09T07:12:54.479Z,20.20
2022-09-09T07:15:27.778Z,20.30
2022-09-09T07:17:57.606Z,20.39
2022-09-09T07:20:26.359Z,20.50
2022-09-09T07:22:57.456Z,20.56
2022-09-09T07:25:26.229Z,20.63
2022-09-09T07:27:54.804Z,20.77
2022-09-09T07:30:27.522Z,20.90
2022-09-09T07:33:00.507Z,21.02
2022-09-09T07:35:30.855Z,21.17
2022-09-09T07:37:59.468Z,21.29
2022-09-09T07:40:28.272Z,21.28
2022-09-09T07:42:57.359Z,21.32
2022-09-09T07:45:26.449Z,21.42
2022-09-09T07:47:56.586Z,21.55
2022-09-09T07:50:27.084Z,21.67
2022-09-09T07:52:57.614Z,21.69
2022-09-09T07:55:27.685Z,21.72
2022-09-09T07:57:57.877Z,21.78
2022-09-09T08:00:28.428Z,21.84
2022-09-09T08:02:59.700Z,21.93
2022-09-09T08:05:29.962Z,21.97
2022-09-09T08:07:58.530Z,22.06
2022-09-09T08:10:27.052Z,22.14
2022-09-09T08:13:16.777Z,22.19
2022-09-09T08:15:46.060Z,22.22
2022-09-09T08:18:15.558Z,22.15
2022-09-09T08:20:45.689Z,22.21
2022-09-09T08:23:14.402Z,22.32
2022-09-09T08:25:44.108Z,22.49
2022-09-09T08:28:12.752Z,22.58
2022-09-09T08:30:41.609Z,22.59
2022-09-09T08:33:12.068Z,22.63
2022-09-09T08:35:40.719Z,22.68
2022-09-09T08:38:11.217Z,22.82
2022-09-09T08:40:50.758Z,22.93
2022-09-09T08:43:24.051Z,23.12
2022-09-09T08:46:01.948Z,23.27
2022-09-09T08:48:46.745Z,23.33
2022-09-09T08:51:16.313Z,23.34
2022-09-09T08:53:59.152Z,23.31
2022-09-09T08:56:35.182Z,23.32
2022-09-09T08:59:06.378Z,23.41
2022-09-09T09:02:03.207Z,23.52
2022-09-09T09:05:02.709Z,23.61
2022-09-09T09:07:46.073Z,23.68
2022-09-09T09:10:41.307Z,23.73
2022-09-09T09:13:22.462Z,23.85
2022-09-09T09:16:00.702Z,23.91
2022-09-09T09:18:30.732Z,24.06
2022-09-09T09:21:08.444Z,24.10
2022-09-09T09:23:44.002Z,24.24
2022-09-09T09:26:14.203Z,24.45
2022-09-09T09:28:44.505Z,24.57
2022-09-09T09:31:17.664Z,24.47
2022-09-09T09:33:54.492Z,24.36
2022-09-09T09:36:36.434Z,24.35
2022-09-09T09:42:13.532Z,24.29
2022-09-09T09:44:46.415Z,24.14
2022-09-09T09:47:22.135Z,24.09
2022-09-09T09:50:03.687Z,24.24
2022-09-09T09:52:38.309Z,24.42
2022-09-09T09:55:16.492Z,24.65
2022-09-09T09:57:49.775Z,24.79
2022-09-09T10:00:21.779Z,24.93
2022-09-09T10:03:02.935Z,25.13
2022-09-09T10:05:38.674Z,25.20
2022-09-09T10:08:14.533Z,25.39
2022-09-09T10:11:03.125Z,25.51
2022-09-09T10:13:46.660Z,25.60
2022-09-09T10:16:31.815Z,25.69
2022-09-09T10:19:02.827Z,25.81
2022-09-09T10:21:54.603Z,25.81
2022-09-09T10:24:57.795Z,26.01
2022-09-09T10:27:36.298Z,26.07
2022-09-09T10:30:17.693Z,25.99
2022-09-09T10:32:56.875Z,25.94
2022-09-09T10:35:31.715Z,26.18
2022-09-09T10:38:18.403Z,26.23
2022-09-09T10:41:13.686Z,26.36
2022-09-09T10:44:09.438Z,26.63
2022-09-09T10:46:55.243Z,26.85
2022-09-09T10:49:43.677Z,26.81
2022-09-09T10:52:20.414Z,26.73
2022-09-09T10:54:59.644Z,26.63
2022-09-09T10:57:33.433Z,26.65
2022-09-09T11:00:07.595Z,26.76
2022-09-09T11:02:40.886Z,26.86
2022-09-09T11:05:17.277Z,26.76
2022-09-09T11:07:53.976Z,26.45
2022-09-09T11:10:29.366Z,26.02
2022-09-09T11:13:02.166Z,25.76
2022-09-09T11:15:38.245Z,25.72
2022-09-09T11:18:13.382Z,25.76
2022-09-09T11:20:44.179Z,25.74
2022-09-09T11:23:18.241Z,25.65
2022-09-09T11:25:53.271Z,25.60
2022-09-09T11:28:44.486Z,25.54
2022-09-09T11:31:30.671Z,25.62
2022-09-09T11:34:20.694Z,25.68
2022-09-09T11:37:08.232Z,25.72
2022-09-09T11:40:02.881Z,25.76
2022-09-09T11:42:31.613Z,25.79
2022-09-09T11:45:10.831Z,25.77
2022-09-09T11:47:40.072Z,25.75
2022-09-09T11:50:31.761Z,25.86
2022-09-09T11:53:22.170Z,25.93
2022-09-09T11:56:03.508Z,26.06
2022-09-09T11:58:39.198Z,26.37
2022-09-09T12:01:32.307Z,26.72
2022-09-09T12:04:22.190Z,26.95
2022-09-09T12:06:56.329Z,26.88
2022-09-09T12:09:46.766Z,26.83
2022-09-09T12:12:28.492Z,26.77
2022-09-09T12:15:01.886Z,26.90
2022-09-09T12:17:34.579Z,26.93
2022-09-09T12:20:13.840Z,27.01
2022-09-09T12:23:03.032Z,26.98
2022-09-09T12:25:37.809Z,27.02
2022-09-09T12:28:13.157Z,27.11
2022-09-09T12:30:51.970Z,26.99
2022-09-09T12:33:23.074Z,26.86
2022-09-09T12:35:57.815Z,26.77
2022-09-09T12:38:34.410Z,26.58
2022-09-09T12:41:05.683Z,26.42
2022-09-09T12:43:35.060Z,26.51
2022-09-09T12:46:05.519Z,26.76
2022-09-09T12:48:39.146Z,26.96
2022-09-09T12:51:19.155Z,27.25
2022-09-09T12:53:48.475Z,27.39
2022-09-09T12:56:26.195Z,27.20
2022-09-09T12:58:57.236Z,27.00
2022-09-09T13:01:28.034Z,26.86
2022-09-09T13:03:59.499Z,26.83
2022-09-09T13:06:30.868Z,26.81
2022-09-09T13:09:01.490Z,26.77
2022-09-09T13:11:37.155Z,26.66
2022-09-09T13:14:06.394Z,26.88
2022-09-09T13:16:42.080Z,26.99
2022-09-09T13:19:17.317Z,26.93
2022-09-09T13:21:45.985Z,27.04
2022-09-09T13:24:30.729Z,26.95
2022-09-09T13:27:03.596Z,26.76
2022-09-09T13:29:33.336Z,26.56
2022-09-09T13:32:07.738Z,26.35
2022-09-09T13:34:37.717Z,26.15
2022-09-09T13:37:08.701Z,26.01
2022-09-09T13:39:39.714Z,25.91
2022-09-09T13:42:27.901Z,25.79
2022-09-09T13:44:58.058Z,25.70
2022-09-09T13:47:34.068Z,25.69
2022-09-09T13:50:21.469Z,25.66
2022-09-09T13:52:51.480Z,25.64
2022-09-09T13:55:22.508Z,25.62
2022-09-09T13:57:57.168Z,25.62
2022-09-09T14:00:26.404Z,25.69
2022-09-09T14:02:57.040Z,25.69
2022-09-09T14:05:26.304Z,25.79
2022-09-09T14:07:54.811Z,25.77
2022-09-09T14:10:23.617Z,25.75
2022-09-09T14:12:52.305Z,25.53
2022-09-09T14:15:23.195Z,25.47
2022-09-09T14:17:53.565Z,25.49
2022-09-09T14:20:22.450Z,25.52
2022-09-09T14:22:51.041Z,25.46
2022-09-09T14:25:19.701Z,25.43
2022-09-09T14:27:48.329Z,25.30
2022-09-09T14:30:19.070Z,25.22
2022-09-09T14:32:49.312Z,25.16
2022-09-09T14:35:18.746Z,25.09
2022-09-09T14:37:47.716Z,25.04
2022-09-09T14:40:18.139Z,25.04
2022-09-09T14:42:46.971Z,25.03
2022-09-09T14:45:15.824Z,25.02
2022-09-09T14:47:44.401Z,25.03
2022-09-09T14:50:15.107Z,25.05
2022-09-09T14:52:43.894Z,25.13
2022-09-09T14:55:12.617Z,25.28
2022-09-09T14:57:41.476Z,25.48
2022-09-09T15:00:12.380Z,25.47
2022-09-09T15:02:41.188Z,25.35
2022-09-09T15:05:10.754Z,25.19
2022-09-09T15:07:41.164Z,25.07
2022-09-09T15:10:10.475Z,24.97
2022-09-09T15:12:39.902Z,24.85
2022-09-09T15:15:09.577Z,24.72
2022-09-09T15:17:38.634Z,24.65
2022-09-09T15:20:08.275Z,24.63
2022-09-09T15:22:39.145Z,24.57
2022-09-09T15:25:10.165Z,24.53
2022-09-09T15:27:40.436Z,24.51
2022-09-09T15:30:11.004Z,24.49
2022-09-09T15:32:39.912Z,24.47
2022-09-09T15:35:09.523Z,24.44
2022-09-09T15:37:38.172Z,24.41
2022-09-09T15:40:09.554Z,24.36
2022-09-09T15:42:39.603Z,24.32
2022-09-09T15:45:10.321Z,24.28
2022-09-09T15:47:38.862Z,24.22
2022-09-09T15:50:07.904Z,24.19
2022-09-09T15:52:36.624Z,24.15
2022-09-09T15:55:05.841Z,24.12
2022-09-09T15:57:37.251Z,24.05
2022-09-09T16:00:08.325Z,24.00
2022-09-09T16:02:38.114Z,23.95
2022-09-09T16:05:07.698Z,23.92
2022-09-09T16:07:37.177Z,23.85
2022-09-09T16:10:06.793Z,23.74
2022-09-09T16:12:36.965Z,23.63
2022-09-09T16:15:06.282Z,23.47
2022-09-09T16:17:39.042Z,23.30
2022-09-09T16:20:09.975Z,23.22
2022-09-09T16:22:38.530Z,23.17
2022-09-09T16:25:07.795Z,23.10
2022-09-09T16:27:38.372Z,23.04
2022-09-09T16:30:08.388Z,22.97
2022-09-09T16:32:37.069Z,22.88
2022-09-09T16:35:06.448Z,22.81
2022-09-09T16:37:35.274Z,22.70
2022-09-09T16:40:04.709Z,22.63
2022-09-09T16:42:37.469Z,22.64
2022-09-09T16:45:11.398Z,22.62
2022-09-09T16:47:40.054Z,22.56
2022-09-09T16:50:09.468Z,22.46
2022-09-09T16:52:38.243Z,22.38
2022-09-09T16:55:07.351Z,22.27
2022-09-09T16:57:35.927Z,22.24
2022-09-09T17:00:08.061Z,22.19
2022-09-09T17:02:38.211Z,22.19
2022-09-09T17:05:07.618Z,22.13
2022-09-09T17:07:36.160Z,22.13
2022-09-09T17:10:04.770Z,22.08
2022-09-09T17:12:33.588Z,22.02
2022-09-09T17:15:04.211Z,21.95
2022-09-09T17:17:33.115Z,21.98
2022-09-09T17:20:03.759Z,22.04
2022-09-09T17:22:32.408Z,22.10
2022-09-09T17:25:01.658Z,22.15
2022-09-09T17:27:32.890Z,22.18
2022-09-09T17:30:01.609Z,22.19
2022-09-09T17:32:30.048Z,22.14
2022-09-09T17:34:58.678Z,22.06
2022-09-09T17:37:28.574Z,22.03
2022-09-09T17:39:57.581Z,22.03
2022-09-09T17:42:26.933Z,21.95
2022-09-09T17:44:55.482Z,21.97
2022-09-09T17:47:24.095Z,22.00
2022-09-09T17:49:52.842Z,22.00
2022-09-09T17:52:21.923Z,21.95
2022-09-09T17:54:51.887Z,21.84
2022-09-09T17:57:20.493Z,21.80
2022-09-09T17:59:48.944Z,21.78
2022-09-09T18:02:17.729Z,21.72
2022-09-09T18:04:46.379Z,21.71
2022-09-09T18:07:15.483Z,21.70
2022-09-09T18:09:44.208Z,21.66
2022-09-09T18:12:14.365Z,21.59
2022-09-09T18:14:43.484Z,21.49
2022-09-09T18:17:12.353Z,21.48
2022-09-09T18:19:41.563Z,21.44
2022-09-09T18:22:10.055Z,21.41
2022-09-09T18:24:38.679Z,21.40
2022-09-09T18:27:07.442Z,21.33
2022-09-09T18:29:37.522Z,21.28
2022-09-09T18:32:06.571Z,21.25
2022-09-09T18:34:36.061Z,21.28
2022-09-09T18:37:04.924Z,21.34
2022-09-09T18:39:33.671Z,21.42
2022-09-09T18:42:03.125Z,21.44
2022-09-09T18:44:34.068Z,21.44
2022-09-09T18:47:04.775Z,21.47
2022-09-09T18:49:34.694Z,21.49
2022-09-09T18:52:04.607Z,21.49
2022-09-09T18:54:34.600Z,21.45
2022-09-09T18:57:03.970Z,21.46
2022-09-09T18:59:32.717Z,21.41
2022-09-09T19:02:01.702Z,21.34
2022-09-09T19:04:33.510Z,21.31
2022-09-09T19:07:02.203Z,21.29
2022-09-09T19:09:34.149Z,21.30
2022-09-09T19:12:03.486Z,21.34
2022-09-09T19:14:33.402Z,21.32
2022-09-09T19:17:02.546Z,21.32
2022-09-09T19:19:34.698Z,21.34
2022-09-09T19:22:07.212Z,21.35
2022-09-09T19:24:37.285Z,21.31
2022-09-09T19:27:07.989Z,21.31
2022-09-09T19:29:40.363Z,21.31
2022-09-09T19:35:02.199Z,21.34
2022-09-09T19:37:32.845Z,21.32
2022-09-09T19:40:01.499Z,21.32
2022-09-09T19:42:31.836Z,21.29
2022-09-09T19:45:01.630Z,21.22
2022-09-09T19:47:30.299Z,21.18
2022-09-09T19:50:02.408Z,21.14
2022-09-09T19:52:31.266Z,21.10
2022-09-09T19:54:59.887Z,21.10
2022-09-09T19:57:30.774Z,21.09
2022-09-09T20:00:01.029Z,21.08
2022-09-09T20:02:29.664Z,21.07
2022-09-09T20:04:59.855Z,21.01
2022-09-09T20:07:29.991Z,20.97
2022-09-09T20:09:58.842Z,20.91
2022-09-09T20:12:27.576Z,20.77
2022-09-09T20:14:56.278Z,20.69
2022-09-09T20:17:24.997Z,20.63
2022-09-09T20:19:53.770Z,20.57
2022-09-09T20:22:22.417Z,20.54
2022-09-09T20:24:52.559Z,20.47
2022-09-09T20:27:21.329Z,20.41
2022-09-09T20:29:50.132Z,20.39
2022-09-09T20:32:19.012Z,20.36
2022-09-09T20:34:48.548Z,20.41
2022-09-09T20:37:17.064Z,20.43
2022-09-09T20:39:46.739Z,20.45
2022-09-09T20:42:18.260Z,20.46
2022-09-09T20:44:47.208Z,20.49
2022-09-09T20:47:15.906Z,20.48
2022-09-09T20:49:44.568Z,20.50
2022-09-09T20:52:13.432Z,20.51
2022-09-09T20:54:42.364Z,20.51
2022-09-09T20:57:11.194Z,20.52
2022-09-09T20:59:42.642Z,20.54
2022-09-09T21:02:13.163Z,20.52
2022-09-09T21:04:42.338Z,20.50
2022-09-09T21:07:11.015Z,20.45
2022-09-09T21:09:39.603Z,20.44
2022-09-09T21:12:08.804Z,20.44
2022-09-09T21:14:37.601Z,20.40
2022-09-09T21:17:07.639Z,20.32
2022-09-09T21:19:36.621Z,20.17
2022-09-09T21:22:05.243Z,20.12
2022-09-09T21:24:34.203Z,20.09
2022-09-09T21:27:02.851Z,20.02
2022-09-09T21:29:31.665Z,19.89
2022-09-09T21:32:01.642Z,19.78
2022-09-09T21:34:31.770Z,19.75
2022-09-09T21:37:00.502Z,19.74
2022-09-09T21:39:29.090Z,19.77
2022-09-09T21:41:58.223Z,19.82
2022-09-09T21:44:27.986Z,19.86
2022-09-09T21:46:56.790Z,19.80
2022-09-09T21:49:25.276Z,19.75
2022-09-09T21:51:58.795Z,19.75
2022-09-09T21:54:31.855Z,19.76
2022-09-09T21:57:00.621Z,19.66
2022-09-09T21:59:29.171Z,19.51
2022-09-09T22:01:58.977Z,19.38
2022-09-09T22:04:27.902Z,19.29
2022-09-09T22:06:57.865Z,19.20
2022-09-09T22:09:26.752Z,19.15
2022-09-09T22:11:55.345Z,19.23
2022-09-09T22:14:23.952Z,19.33
2022-09-09T22:16:52.624Z,19.28
2022-09-09T22:19:21.364Z,19.30
2022-09-09T22:21:49.824Z,19.31
2022-09-09T22:24:19.867Z,19.27
2022-09-09T22:26:48.899Z,19.25
2022-09-09T22:29:17.662Z,19.29
2022-09-09T22:31:46.263Z,19.19
2022-09-09T22:34:14.844Z,19.15
2022-09-09T22:36:43.411Z,19.21
2022-09-09T22:39:11.912Z,19.33
2022-09-09T22:41:43.044Z,19.50
2022-09-09T22:44:11.692Z,19.53
2022-09-09T22:46:40.352Z,19.48
2022-09-09T22:49:09.203Z,19.45
2022-09-09T22:51:37.896Z,19.42
2022-09-09T22:54:08.164Z,19.31
2022-09-09T22:56:37.187Z,19.24
2022-09-09T22:59:07.385Z,19.23
2022-09-09T23:01:36.413Z,19.21
2022-09-09T23:04:05.509Z,19.22
2022-09-09T23:06:34.253Z,19.18
2022-09-09T23:09:04.074Z,19.17
2022-09-09T23:11:35.065Z,19.19
2022-09-09T23:14:05.545Z,19.20
2022-09-09T23:16:40.103Z,19.19
2022-09-09T23:19:11.017Z,19.17
2022-09-09T23:21:41.537Z,19.23
2022-09-09T23:24:13.123Z,19.29
2022-09-09T23:26:44.025Z,19.30
2022-09-09T23:29:15.219Z,19.31
2022-09-09T23:31:47.927Z,19.30
2022-09-09T23:34:17.027Z,19.33
2022-09-09T23:36:45.705Z,19.35
2022-09-09T23:39:14.501Z,19.32
2022-09-09T23:41:43.091Z,19.30
2022-09-09T23:44:12.254Z,19.32
2022-09-09T23:46:41.021Z,19.38
2022-09-09T23:49:11.914Z,19.41
2022-09-09T23:51:41.881Z,19.41
2022-09-09T23:54:11.644Z,19.44
2022-09-09T23:56:42.674Z,19.41
2022-09-09T23:59:11.455Z,19.41
